Time;durP1;ratioP1;P1;durP2;ratioP2;P2;SDS_P1;SDS_P2;PMS_P1;PMS_P2;Temp;Humidity;BMP_temperature;BMP_pressure;BME280_temperature;BME280_humidity;BME280_pressure;Samples;Min_cycle;Max_cycle;Signal;HPM_P1;HPM_P2
2021/05/05 00:02:07;;;;;;;4.55;2.55;;;;;;;9.27;70.72;97701.97;3599784;40;20050;-66
2021/05/05 00:04:34;;;;;;;4.07;2.55;;;;;;;9.24;70.42;97703.19;3601942;40;20047;-66
2021/05/05 00:07:01;;;;;;;5.45;2.90;;;;;;;9.17;70.65;97697.94;3602692;40;20420;-66
2021/05/05 00:09:29;;;;;;;3.53;2.33;;;;;;;9.16;70.89;97688.41;3602803;39;20056;-66
2021/05/05 00:11:56;;;;;;;3.75;3.03;;;;;;;9.20;70.86;97704.63;3599341;39;20048;-65
2021/05/05 00:14:23;;;;;;;5.30;2.97;;;;;;;9.17;70.91;97711.13;3599608;40;20393;-66
2021/05/05 00:16:50;;;;;;;6.13;3.00;;;;;;;9.18;70.88;97704.00;3599316;40;20389;-66
2021/05/05 00:19:18;;;;;;;4.93;3.10;;;;;;;9.17;70.92;97710.31;3599469;39;20055;-66
2021/05/05 00:21:45;;;;;;;8.45;3.65;;;;;;;9.15;70.93;97715.00;3599455;40;20043;-67
2021/05/05 00:24:12;;;;;;;4.65;3.25;;;;;;;9.13;70.74;97719.66;3599584;40;20407;-66
2021/05/05 00:26:39;;;;;;;5.43;3.40;;;;;;;9.16;71.00;97714.78;3599289;39;20048;-66
2021/05/05 00:29:08;;;;;;;5.75;3.13;;;;;;;9.10;70.90;97707.72;3599144;40;20056;-66
2021/05/05 00:31:34;;;;;;;7.97;3.67;;;;;;;9.09;70.95;97700.81;3598185;40;20044;-66
2021/05/05 00:34:02;;;;;;;4.55;3.50;;;;;;;9.13;71.13;97683.56;3599614;40;20077;-65
2021/05/05 00:36:29;;;;;;;7.90;3.90;;;;;;;9.14;71.00;97685.19;3598569;40;20050;-65
2021/05/05 00:38:56;;;;;;;6.88;4.30;;;;;;;9.17;70.61;97689.22;3599150;40;20071;-66
2021/05/05 00:41:23;;;;;;;8.55;4.05;;;;;;;9.12;70.49;97684.59;3599363;40;20060;-65
2021/05/05 00:43:50;;;;;;;7.65;4.22;;;;;;;9.07;70.37;97683.59;3599247;40;20054;-65
2021/05/05 00:46:17;;;;;;;10.45;4.38;;;;;;;9.05;70.48;97677.72;3599402;40;20048;-65
2021/05/05 00:48:44;;;;;;;7.20;4.25;;;;;;;9.04;70.48;97661.09;3598939;39;20436;-65
2021/05/05 00:51:11;;;;;;;9.48;4.50;;;;;;;9.02;70.55;97642.06;3599330;40;20064;-66
2021/05/05 00:53:40;;;;;;;5.03;3.58;;;;;;;9.03;70.49;97654.22;3599273;40;20420;-65
2021/05/05 00:56:08;;;;;;;7.80;4.13;;;;;;;9.06;70.47;97645.91;3599248;39;20050;-65
2021/05/05 00:58:35;;;;;;;8.27;4.13;;;;;;;9.03;70.58;97642.88;3598765;40;20036;-65
2021/05/05 01:01:04;;;;;;;8.77;4.07;;;;;;;8.97;70.61;97651.59;3599168;40;20048;-66
2021/05/05 01:03:31;;;;;;;6.32;3.70;;;;;;;9.00;70.57;97659.09;3599078;40;20052;-66
2021/05/05 01:06:00;;;;;;;6.43;4.20;;;;;;;9.03;70.63;97662.13;3597996;40;20393;-64
2021/05/05 01:08:29;;;;;;;9.65;4.13;;;;;;;9.07;70.64;97665.97;3597774;40;20068;-65
2021/05/05 01:11:00;;;;;;;9.98;4.25;;;;;;;9.06;70.51;97674.06;3598003;40;20333;-65
2021/05/05 01:13:28;;;;;;;7.15;4.40;;;;;;;9.00;70.58;97675.72;3597909;40;20419;-65
2021/05/05 01:15:57;;;;;;;10.70;3.95;;;;;;;9.02;70.62;97686.03;3598230;40;20333;-65
2021/05/05 01:18:27;;;;;;;9.32;4.50;;;;;;;9.06;70.57;97684.59;3597731;40;20048;-66
2021/05/05 01:20:57;;;;;;;6.68;4.15;;;;;;;9.05;70.20;97681.16;3597747;39;20055;-65
2021/05/05 01:23:25;;;;;;;7.15;4.20;;;;;;;9.04;70.09;97679.56;3598613;39;20055;-65
2021/05/05 01:25:53;;;;;;;9.90;3.85;;;;;;;9.06;69.91;97679.34;3597836;40;20048;-65
2021/05/05 01:28:21;;;;;;;10.02;4.10;;;;;;;9.03;70.02;97682.41;3597871;40;20052;-65
2021/05/05 01:30:49;;;;;;;6.65;3.75;;;;;;;9.00;70.13;97681.00;3599535;40;20055;-66
2021/05/05 01:33:18;;;;;;;7.38;3.70;;;;;;;8.98;69.67;97675.13;3599716;39;20044;-65
2021/05/05 01:35:47;;;;;;;6.85;3.25;;;;;;;8.97;69.47;97668.22;3599206;40;20423;-65
2021/05/05 01:38:15;;;;;;;6.80;3.78;;;;;;;8.89;69.04;97679.00;3597478;40;20056;-65
2021/05/05 01:40:43;;;;;;;9.68;3.45;;;;;;;8.84;69.01;97673.56;3597937;40;20052;-65
2021/05/05 01:43:11;;;;;;;7.93;3.30;;;;;;;8.87;68.97;97673.16;3598991;39;20051;-65
2021/05/05 01:45:40;;;;;;;5.82;3.60;;;;;;;8.84;68.49;97686.72;3598007;40;20046;-65
2021/05/05 01:48:09;;;;;;;6.82;3.05;;;;;;;8.76;68.24;97679.88;3597648;40;20076;-66
2021/05/05 01:50:37;;;;;;;6.68;3.30;;;;;;;8.73;67.60;97687.38;3598771;40;20051;-65
2021/05/05 01:53:05;;;;;;;10.93;3.38;;;;;;;8.72;67.70;97688.41;3598929;39;20351;-65
2021/05/05 01:55:36;;;;;;;8.13;2.90;;;;;;;8.68;67.18;97673.00;3599014;39;20312;-65
2021/05/05 01:58:06;;;;;;;6.85;2.90;;;;;;;8.62;66.85;97663.31;3597909;40;20121;-65
2021/05/05 02:00:35;;;;;;;8.32;3.30;;;;;;;8.65;66.38;97662.91;3597833;40;20044;-66
2021/05/05 02:03:05;;;;;;;4.72;2.55;;;;;;;8.62;65.18;97657.22;3598798;39;20039;-66
2021/05/05 02:05:50;;;;;;;6.13;2.30;;;;;;;8.54;64.37;97646.91;3598951;40;20038;-65
2021/05/05 02:08:24;;;;;;;;;;;;;;;8.49;64.09;97650.19;3598067;40;20051;-66
2021/05/05 02:10:52;;;;;;;10.50;2.20;;;;;;;8.51;64.61;97639.44;3597587;40;19939;-66
2021/05/05 02:13:20;;;;;;;5.38;2.40;;;;;;;8.51;64.68;97650.75;3599073;39;20040;-65
2021/05/05 02:15:47;;;;;;;6.80;2.47;;;;;;;8.46;64.98;97647.94;3597719;40;20050;-65
2021/05/05 02:18:17;;;;;;;5.47;2.47;;;;;;;8.48;65.36;97645.09;3653633;22;20320;-61
2021/05/05 02:20:45;;;;;;;5.03;2.67;;;;;;;8.49;65.43;97649.34;3597811;40;20051;-62
2021/05/05 02:23:12;;;;;;;6.50;2.58;;;;;;;8.50;65.87;97645.72;3598091;40;20051;-61
2021/05/05 02:25:39;;;;;;;14.88;3.10;;;;;;;8.51;65.95;97649.97;3598068;39;20056;-61
2021/05/05 02:28:11;;;;;;;7.45;2.92;;;;;;;8.47;65.99;97652.19;3597656;40;20043;-61
2021/05/05 02:30:44;;;;;;;;;;;;;;;8.44;66.30;97656.03;3598580;40;20051;-63
2021/05/05 02:33:15;;;;;;;8.38;3.92;;;;;;;8.50;66.29;97653.63;3598680;39;20034;-62
2021/05/05 02:35:43;;;;;;;4.80;3.03;;;;;;;8.43;65.98;97664.97;3597676;40;20489;-62
2021/05/05 02:38:13;;;;;;;5.88;2.58;;;;;;;8.41;65.75;97664.38;3598629;39;20085;-63
2021/05/05 02:40:40;;;;;;;7.47;3.15;;;;;;;8.38;65.13;97672.69;3598678;39;20048;-62
2021/05/05 02:43:08;;;;;;;3.65;1.92;;;;;;;8.34;64.67;97668.81;3598136;39;20348;-62
2021/05/05 02:45:35;;;;;;;6.63;2.30;;;;;;;8.25;64.21;97669.25;3597711;40;20084;-62
2021/05/05 02:48:05;;;;;;;7.53;2.17;;;;;;;8.19;63.17;97676.13;3597900;39;20021;-62
2021/05/05 02:50:33;;;;;;;7.88;1.90;;;;;;;8.16;63.20;97674.72;3597892;40;20052;-62
2021/05/05 02:53:00;;;;;;;7.28;1.83;;;;;;;8.15;62.60;97680.19;3597485;39;20048;-63
2021/05/05 02:55:27;;;;;;;7.10;1.88;;;;;;;8.11;62.47;97669.25;3598510;39;20055;-62
2021/05/05 02:57:54;;;;;;;4.47;1.80;;;;;;;8.07;62.43;97672.50;3597336;39;20068;-63
2021/05/05 03:00:22;;;;;;;8.38;2.33;;;;;;;8.00;62.28;97679.56;3598759;39;20381;-63
2021/05/05 03:02:49;;;;;;;9.35;2.42;;;;;;;7.97;62.22;97680.00;3598741;39;20111;-62
2021/05/05 03:05:16;;;;;;;4.60;1.63;;;;;;;7.89;61.90;97686.28;3597500;39;20060;-62
2021/05/05 03:07:43;;;;;;;9.85;2.00;;;;;;;7.80;61.42;97688.28;3598109;39;20051;-63
2021/05/05 03:10:11;;;;;;;2.97;1.60;;;;;;;7.80;61.20;97679.59;3597846;39;20051;-62
2021/05/05 03:12:38;;;;;;;8.20;1.80;;;;;;;7.77;60.33;97691.31;3600657;39;20040;-63
2021/05/05 03:15:07;;;;;;;4.40;1.77;;;;;;;7.70;60.59;97693.13;3601596;40;20044;-62
2021/05/05 03:17:34;;;;;;;7.60;1.83;;;;;;;7.64;60.62;97688.69;3604556;39;20051;-62
2021/05/05 03:20:05;;;;;;;10.20;2.28;;;;;;;7.57;60.07;97698.38;3603021;39;20043;-62
2021/05/05 03:22:32;;;;;;;5.07;1.40;;;;;;;7.53;60.49;97694.53;3603310;39;20152;-62
2021/05/05 03:24:59;;;;;;;11.63;2.22;;;;;;;7.56;60.36;97696.78;3604852;39;20413;-61
2021/05/05 03:27:25;;;;;;;4.95;2.15;;;;;;;7.51;60.21;97694.75;3604722;39;20071;-62
2021/05/05 03:29:52;;;;;;;5.65;1.63;;;;;;;7.45;60.19;97695.53;3603485;39;20083;-62
2021/05/05 03:32:19;;;;;;;3.35;1.92;;;;;;;7.42;60.29;97698.56;3605478;39;20031;-62
2021/05/05 03:34:46;;;;;;;9.70;2.30;;;;;;;7.34;60.01;97693.47;3605134;39;20266;-63
2021/05/05 03:37:14;;;;;;;9.55;2.10;;;;;;;7.33;60.39;97699.75;3600483;39;20039;-63
2021/05/05 03:39:41;;;;;;;6.65;2.60;;;;;;;7.25;60.13;97705.19;3599872;39;20125;-62
2021/05/05 03:42:08;;;;;;;4.40;1.60;;;;;;;7.24;60.20;97707.00;3599694;39;20029;-62
2021/05/05 03:44:35;;;;;;;6.80;2.20;;;;;;;7.20;60.13;97711.84;3599426;39;20401;-62
2021/05/05 03:47:02;;;;;;;8.25;2.00;;;;;;;7.16;60.24;97715.88;3600158;39;20052;-62
2021/05/05 03:49:29;;;;;;;8.63;1.90;;;;;;;7.10;60.43;97708.78;3603106;39;20052;-62
2021/05/05 03:51:56;;;;;;;10.68;1.98;;;;;;;7.09;60.38;97716.84;3599813;39;20412;-62
2021/05/05 03:54:27;;;;;;;7.00;2.38;;;;;;;7.08;60.34;97718.69;3599254;39;20040;-62
2021/05/05 03:56:53;;;;;;;5.15;2.22;;;;;;;7.07;60.62;97721.50;3599640;39;20043;-62
2021/05/05 03:59:20;;;;;;;11.82;2.85;;;;;;;7.09;60.80;97730.00;3599850;39;20048;-62
2021/05/05 04:01:47;;;;;;;7.00;2.30;;;;;;;7.07;60.50;97730.22;3599860;39;20080;-62
2021/05/05 04:04:14;;;;;;;5.95;1.75;;;;;;;7.04;60.51;97735.84;3599982;39;20312;-63
2021/05/05 04:06:41;;;;;;;11.98;2.55;;;;;;;7.06;60.64;97733.00;3599465;39;20059;-62
2021/05/05 04:09:08;;;;;;;11.60;2.15;;;;;;;6.99;60.73;97737.44;3599220;39;20052;-62
2021/05/05 04:11:35;;;;;;;11.25;2.45;;;;;;;6.97;60.85;97737.63;3599747;39;20056;-62
2021/05/05 04:14:02;;;;;;;9.82;2.33;;;;;;;6.90;60.56;97735.00;3599181;39;20308;-62
2021/05/05 04:16:47;;;;;;;8.13;2.30;;;;;;;6.84;60.71;97746.25;3599145;39;20042;-62
2021/05/05 04:19:33;;;;;;;6.00;2.35;;;;;;;6.82;60.65;97747.47;3598627;39;20062;-63
2021/05/05 04:22:18;;;;;;;5.65;1.70;;;;;;;6.79;60.29;97751.28;3598667;39;20121;-63
2021/05/05 04:25:03;;;;;;;;;;;;;;;6.74;60.05;97753.69;3599519;39;20429;-63
2021/05/05 04:27:31;;;;;;;8.15;2.28;;;;;;;6.70;60.37;97750.63;3599412;39;19936;-63
2021/05/05 04:29:58;;;;;;;6.60;2.05;;;;;;;6.73;60.29;97756.50;3599504;39;20044;-62
2021/05/05 04:32:25;;;;;;;9.52;2.53;;;;;;;6.78;60.29;97768.06;3599901;39;20040;-62
2021/05/05 04:34:52;;;;;;;3.80;2.05;;;;;;;6.77;60.00;97766.41;3599788;39;20411;-62
2021/05/05 04:37:18;;;;;;;7.15;2.20;;;;;;;6.80;60.30;97766.03;3599140;39;20489;-61
2021/05/05 04:39:46;;;;;;;10.48;3.17;;;;;;;6.81;60.10;97772.09;3599586;39;20043;-62
2021/05/05 04:42:13;;;;;;;11.00;2.20;;;;;;;6.77;59.78;97776.13;3599348;39;20364;-62
2021/05/05 04:44:41;;;;;;;15.70;4.63;;;;;;;6.76;60.04;97774.50;3599413;39;20043;-63
2021/05/05 04:47:08;;;;;;;6.90;1.63;;;;;;;6.77;59.95;97776.94;3599077;39;20350;-63
2021/05/05 04:49:35;;;;;;;8.45;2.50;;;;;;;6.83;59.72;97783.25;3599279;39;20070;-62
2021/05/05 04:52:01;;;;;;;9.75;2.17;;;;;;;6.86;59.84;97786.28;3598313;39;20060;-62
2021/05/05 04:54:28;;;;;;;14.23;2.60;;;;;;;6.91;59.89;97789.16;3599490;39;20040;-62
2021/05/05 04:56:55;;;;;;;10.70;1.98;;;;;;;7.01;59.66;97799.28;3598970;39;20043;-62
2021/05/05 04:59:23;;;;;;;10.70;2.63;;;;;;;6.96;59.39;97804.31;3599167;39;20419;-62
2021/05/05 05:01:50;;;;;;;12.13;3.20;;;;;;;7.06;59.69;97806.59;3599469;39;20433;-61
2021/05/05 05:04:17;;;;;;;11.85;2.50;;;;;;;7.03;59.28;97807.00;3599480;39;20056;-61
2021/05/05 05:06:44;;;;;;;9.80;2.72;;;;;;;7.01;59.58;97809.81;3599751;39;20042;-62
2021/05/05 05:09:11;;;;;;;5.65;2.20;;;;;;;7.09;59.51;97814.09;3598592;39;20032;-62
2021/05/05 05:11:38;;;;;;;9.70;2.40;;;;;;;7.13;59.28;97815.34;3599501;39;20329;-62
2021/05/05 05:14:04;;;;;;;10.23;2.33;;;;;;;7.19;59.31;97818.00;3599565;39;20293;-61
2021/05/05 05:16:31;;;;;;;7.50;2.05;;;;;;;7.18;59.33;97818.19;3599451;39;20059;-62
2021/05/05 05:18:59;;;;;;;8.93;2.40;;;;;;;7.32;59.09;97827.75;3599253;39;20132;-62
2021/05/05 05:21:26;;;;;;;8.40;2.17;;;;;;;7.34;58.91;97819.66;3598925;40;20032;-64
2021/05/05 05:23:54;;;;;;;7.15;2.08;;;;;;;7.35;58.72;97834.47;3599236;39;20031;-62
2021/05/05 05:26:21;;;;;;;9.75;2.63;;;;;;;7.51;58.70;97828.88;3599441;39;20035;-63
2021/05/05 05:28:48;;;;;;;9.65;2.90;;;;;;;7.55;58.65;97834.50;3599820;39;20055;-61
2021/05/05 05:31:15;;;;;;;7.93;2.25;;;;;;;7.63;58.50;97834.34;3602882;39;20056;-62
2021/05/05 05:33:42;;;;;;;11.48;2.13;;;;;;;7.56;58.43;97842.22;3602564;39;20180;-62
2021/05/05 05:36:10;;;;;;;9.45;2.30;;;;;;;7.59;58.56;97847.09;3602860;39;20034;-64
2021/05/05 05:38:37;;;;;;;11.50;2.95;;;;;;;7.67;58.66;97854.81;3601703;39;20055;-62
2021/05/05 05:41:04;;;;;;;10.88;2.72;;;;;;;7.70;58.42;97845.72;3601023;39;20406;-61
2021/05/05 05:43:30;;;;;;;10.95;2.17;;;;;;;7.68;58.27;97842.47;3602069;39;20056;-61
2021/05/05 05:45:57;;;;;;;6.72;1.95;;;;;;;7.71;58.43;97847.31;3602134;39;20055;-61
2021/05/05 05:48:24;;;;;;;10.18;2.45;;;;;;;7.68;58.33;97851.19;3600958;39;20044;-62
2021/05/05 05:50:51;;;;;;;11.63;2.95;;;;;;;7.65;58.31;97853.38;3601042;39;20080;-61
2021/05/05 05:53:18;;;;;;;7.93;2.75;;;;;;;7.68;58.65;97859.06;3600824;39;20055;-61
2021/05/05 05:55:45;;;;;;;9.98;2.75;;;;;;;7.62;58.64;97862.47;3599390;39;20050;-62
2021/05/05 05:58:12;;;;;;;9.93;2.80;;;;;;;7.68;58.66;97866.16;3598655;39;20313;-62
2021/05/05 06:00:39;;;;;;;9.98;2.10;;;;;;;7.64;58.74;97870.19;3598840;39;20032;-61
2021/05/05 06:03:06;;;;;;;6.85;2.72;;;;;;;7.60;58.89;97874.22;3598255;40;20343;-61
2021/05/05 06:05:34;;;;;;;9.77;2.75;;;;;;;7.67;58.62;97875.03;3598840;39;20032;-61
2021/05/05 06:08:01;;;;;;;9.13;2.58;;;;;;;7.72;58.41;97874.47;3598550;39;20067;-61
2021/05/05 06:10:29;;;;;;;10.00;2.90;;;;;;;7.88;58.25;97876.75;3598791;39;20047;-62
2021/05/05 06:12:56;;;;;;;7.53;2.60;;;;;;;7.97;58.21;97883.44;3599412;39;20113;-61
2021/05/05 06:15:23;;;;;;;11.70;3.30;;;;;;;7.82;58.41;97888.84;3604122;39;20311;-62
2021/05/05 06:17:50;;;;;;;10.73;3.42;;;;;;;7.79;58.42;97878.72;3603545;39;20047;-61
2021/05/05 06:20:17;;;;;;;10.38;2.90;;;;;;;7.92;58.38;97872.72;3599082;39;20028;-61
2021/05/05 06:22:44;;;;;;;11.38;3.13;;;;;;;8.16;58.22;97880.06;3598940;39;20051;-62
2021/05/05 06:25:12;;;;;;;12.82;2.67;;;;;;;8.19;58.03;97882.28;3598884;39;20056;-62
2021/05/05 06:27:39;;;;;;;9.63;2.47;;;;;;;8.22;57.84;97891.59;3598314;39;20126;-61
2021/05/05 06:30:08;;;;;;;10.82;2.72;;;;;;;8.39;57.38;97892.88;3598808;39;20044;-62
2021/05/05 06:32:36;;;;;;;6.00;2.60;;;;;;;8.60;56.70;97883.97;3598935;39;20319;-61
2021/05/05 06:35:04;;;;;;;8.27;2.65;;;;;;;8.52;56.62;97886.81;3599014;39;20047;-61
2021/05/05 06:37:31;;;;;;;11.02;3.50;;;;;;;8.54;57.27;97891.91;3601973;39;20105;-61
2021/05/05 06:40:00;;;;;;;9.68;2.83;;;;;;;8.55;57.03;97896.13;3604386;39;20036;-61
2021/05/05 06:42:28;;;;;;;15.70;3.55;;;;;;;8.29;56.77;97899.53;3603973;39;20165;-62
2021/05/05 06:44:55;;;;;;;15.27;3.60;;;;;;;8.18;57.10;97909.63;3601342;39;20067;-62
2021/05/05 06:47:23;;;;;;;8.73;3.20;;;;;;;8.23;57.46;97909.03;3599148;39;20354;-61
2021/05/05 06:49:50;;;;;;;8.23;3.00;;;;;;;8.21;57.06;97910.25;3599116;39;20498;-62
2021/05/05 06:52:17;;;;;;;8.02;2.58;;;;;;;8.18;57.20;97914.88;3599040;39;20056;-61
2021/05/05 06:54:45;;;;;;;12.48;2.80;;;;;;;8.21;57.21;97910.25;3598999;39;20091;-61
2021/05/05 06:57:11;;;;;;;12.13;2.53;;;;;;;8.24;57.61;97907.19;3598799;39;20043;-63
2021/05/05 06:59:38;;;;;;;9.15;2.70;;;;;;;8.31;57.38;97903.56;3598792;39;20067;-61
2021/05/05 07:02:06;;;;;;;9.60;3.25;;;;;;;8.35;57.13;97907.44;3598582;39;20050;-62
2021/05/05 07:04:33;;;;;;;10.15;2.83;;;;;;;8.43;56.83;97904.63;3598895;39;20064;-61
2021/05/05 07:07:00;;;;;;;7.13;2.60;;;;;;;8.65;56.39;97910.56;3598478;39;20028;-61
2021/05/05 07:09:34;;;;;;;8.20;3.40;;;;;;;8.83;56.24;97903.84;3598382;39;20043;-62
2021/05/05 07:12:00;;;;;;;8.50;2.78;;;;;;;8.91;55.83;97907.09;3597862;39;20125;-62
2021/05/05 07:14:28;;;;;;;8.77;2.90;;;;;;;8.98;55.64;97901.81;3598867;39;20048;-61
2021/05/05 07:16:55;;;;;;;8.40;2.70;;;;;;;9.21;55.55;97897.94;3602465;39;20055;-61
2021/05/05 07:19:22;;;;;;;10.32;3.17;;;;;;;9.37;55.11;97900.13;3603226;39;20385;-62
2021/05/05 07:21:49;;;;;;;13.57;3.47;;;;;;;9.26;54.18;97892.84;3601759;39;20352;-62
2021/05/05 07:24:16;;;;;;;8.68;3.10;;;;;;;9.30;54.51;97894.84;3600318;39;20332;-62
2021/05/05 07:26:43;;;;;;;6.63;3.10;;;;;;;9.46;54.32;97900.72;3600139;39;20386;-62
2021/05/05 07:29:10;;;;;;;13.25;3.50;;;;;;;9.25;54.18;97894.66;3599652;39;20036;-62
2021/05/05 07:31:36;;;;;;;12.38;3.45;;;;;;;9.06;54.21;97898.97;3600056;39;20080;-61
2021/05/05 07:34:04;;;;;;;6.95;2.95;;;;;;;9.22;54.52;97902.19;3599069;39;20079;-62
2021/05/05 07:36:31;;;;;;;10.30;3.15;;;;;;;9.21;53.67;97896.09;3600157;39;20047;-61
2021/05/05 07:44:51;;;;;;;7.25;2.40;;;;;;;9.31;52.10;97906.25;3599796;39;20052;-62
2021/05/05 07:47:20;;;;;;;7.18;2.33;;;;;;;9.51;51.98;97911.44;3599195;39;20078;-61
2021/05/05 07:49:51;;;;;;;8.57;2.53;;;;;;;9.48;51.17;97917.16;3603445;39;20068;-64
2021/05/05 07:52:20;;;;;;;11.60;2.72;;;;;;;9.42;51.64;97914.31;3603502;39;20048;-61
2021/05/05 07:54:46;;;;;;;7.72;2.60;;;;;;;9.42;51.68;97909.03;3603173;39;20428;-61
2021/05/05 07:57:12;;;;;;;7.00;2.85;;;;;;;9.49;51.89;97916.94;3599871;39;20128;-61
2021/05/05 07:59:39;;;;;;;7.70;2.53;;;;;;;9.39;51.23;97913.94;3599699;39;20355;-61
2021/05/05 08:02:06;;;;;;;10.80;2.65;;;;;;;9.27;50.51;97919.03;3599559;39;20044;-62
2021/05/05 08:04:34;;;;;;;4.50;2.28;;;;;;;9.24;50.54;97916.00;3599445;39;20052;-61
2021/05/05 08:07:01;;;;;;;7.90;2.88;;;;;;;9.49;50.29;97916.13;3591641;39;20059;-61
2021/05/05 08:09:29;;;;;;;5.68;2.50;;;;;;;9.56;49.47;97903.75;3589376;40;20438;-62
2021/05/05 08:11:56;;;;;;;6.68;2.90;;;;;;;9.60;49.38;97913.66;3589309;40;20056;-61
2021/05/05 08:14:23;;;;;;;4.70;1.92;;;;;;;9.73;49.39;97918.09;3589471;40;20413;-61
2021/05/05 08:16:50;;;;;;;7.28;2.35;;;;;;;9.74;49.34;97911.78;3588338;40;20114;-61
2021/05/05 08:19:17;;;;;;;4.47;1.33;;;;;;;9.48;49.21;97922.44;3589444;40;20036;-62
2021/05/05 08:21:43;;;;;;;6.20;2.03;;;;;;;9.16;51.02;97941.53;3589555;40;20409;-63
2021/05/05 08:24:11;;;;;;;2.65;1.52;;;;;;;8.94;53.06;97937.50;3589470;40;20051;-61
2021/05/05 08:26:40;;;;;;;7.07;1.95;;;;;;;8.89;54.42;97932.81;3589324;40;20051;-62
2021/05/05 08:29:06;;;;;;;2.72;1.67;;;;;;;8.84;54.58;97937.09;3596499;40;20060;-62
2021/05/05 08:31:33;;;;;;;5.53;2.00;;;;;;;9.13;54.39;97933.22;3589204;40;20075;-63
2021/05/05 08:34:00;;;;;;;4.50;1.70;;;;;;;9.48;54.84;97928.53;3589259;40;20062;-62
2021/05/05 08:36:27;;;;;;;6.75;2.20;;;;;;;9.81;54.31;97931.06;3589418;40;20052;-61
2021/05/05 08:39:12;;;;;;;6.22;2.03;;;;;;;10.37;53.67;97937.53;3589490;40;20036;-61
2021/05/05 08:41:41;;;;;;;7.07;2.22;;;;;;;10.32;53.49;97926.78;3589749;40;20029;-61
2021/05/05 08:44:09;;;;;;;7.90;2.75;;;;;;;10.27;53.03;97927.41;3589512;40;20056;-61
2021/05/05 08:46:38;;;;;;;5.00;2.47;;;;;;;10.27;53.42;97918.69;3589592;40;20099;-61
2021/05/05 08:49:05;;;;;;;6.20;2.10;;;;;;;9.86;52.87;97928.59;3589217;40;20084;-61
2021/05/05 08:51:35;;;;;;;5.55;2.20;;;;;;;9.60;54.03;97949.81;3589837;40;20036;-62
2021/05/05 08:54:03;;;;;;;7.10;2.08;;;;;;;9.29;52.77;98014.56;3589502;40;20048;-62
2021/05/05 08:56:35;;;;;;;3.20;1.60;;;;;;;8.43;56.87;98052.13;3590669;40;20048;-61
2021/05/05 08:59:04;;;;;;;3.00;1.10;;;;;;;7.07;61.19;98078.94;3590588;40;20044;-63
2021/05/05 09:01:31;;;;;;;3.80;1.17;;;;;;;6.26;64.75;98081.66;3590555;40;20051;-63
2021/05/05 09:03:58;;;;;;;3.05;1.30;;;;;;;5.95;67.09;98077.41;3597562;40;20052;-64
2021/05/05 09:06:46;;;;;;;3.95;1.30;;;;;;;6.13;68.44;98073.63;3589225;40;20044;-64
2021/05/05 09:09:30;;;;;;;4.15;1.60;;;;;;;6.34;67.81;98065.00;3589228;40;20354;-63
2021/05/05 09:11:58;;;;;;;2.92;1.40;;;;;;;6.74;68.24;98068.91;3589259;40;20060;-63
2021/05/05 09:14:27;;;;;;;2.22;1.17;;;;;;;7.10;67.70;98055.72;3588925;40;20056;-63
2021/05/05 09:16:54;;;;;;;3.47;1.40;;;;;;;7.36;67.30;98062.19;3588817;40;20059;-63
2021/05/05 09:19:22;;;;;;;1.83;1.20;;;;;;;7.69;66.79;98065.88;3588036;40;20040;-63
2021/05/05 09:21:52;;;;;;;3.20;1.65;;;;;;;7.61;66.98;98062.59;3589075;40;20406;-63
2021/05/05 09:24:27;;;;;;;2.85;1.95;;;;;;;7.62;65.97;98072.09;3589167;40;20056;-63
2021/05/05 09:26:56;;;;;;;2.17;1.20;;;;;;;7.43;65.65;98063.06;3588942;40;20052;-63
2021/05/05 09:29:40;;;;;;;1.40;1.15;;;;;;;7.13;64.85;98073.72;3589380;40;20044;-63
2021/05/05 09:32:08;;;;;;;2.28;1.23;;;;;;;6.94;65.52;98066.47;3589243;40;20385;-65
2021/05/05 09:34:35;;;;;;;5.05;1.85;;;;;;;6.74;65.23;98083.84;3588166;40;20129;-63
2021/05/05 09:37:05;;;;;;;4.20;2.05;;;;;;;6.59;65.71;98068.91;3588865;40;20035;-63
2021/05/05 09:39:34;;;;;;;3.95;1.85;;;;;;;6.58;65.90;98069.13;3588796;40;20310;-63
2021/05/05 09:42:01;;;;;;;1.75;1.45;;;;;;;6.63;65.65;98064.13;3588767;40;20028;-63
2021/05/05 09:44:28;;;;;;;1.85;1.00;;;;;;;6.60;65.68;98061.84;3588648;40;20088;-63
2021/05/05 09:46:58;;;;;;;2.85;1.60;;;;;;;6.55;66.28;98072.09;3587850;40;20060;-62
2021/05/05 09:49:27;;;;;;;2.65;1.90;;;;;;;6.64;66.41;98050.78;3588775;40;20048;-63
2021/05/05 09:51:58;;;;;;;2.40;1.60;;;;;;;6.78;66.74;98053.56;3588885;40;20412;-63
2021/05/05 09:54:28;;;;;;;1.85;1.55;;;;;;;6.83;66.85;98046.75;3588099;40;20065;-63
2021/05/05 09:57:11;;;;;;;3.08;1.63;;;;;;;6.97;66.87;98049.50;3588852;40;20368;-63
2021/05/05 09:59:54;;;;;;;4.30;2.17;;;;;;;7.19;67.28;98065.09;3588957;40;20052;-63
2021/05/05 10:02:22;;;;;;;3.00;1.65;;;;;;;7.35;66.83;98057.94;3589713;40;20070;-63
2021/05/05 10:05:05;;;;;;;5.38;1.60;;;;;;;7.51;65.52;98062.09;3590184;40;20055;-63
2021/05/05 10:07:50;;;;;;;1.42;1.33;;;;;;;7.62;64.53;98072.09;3589968;40;20025;-65
2021/05/05 10:10:18;;;;;;;3.40;1.55;;;;;;;7.80;63.45;98074.25;3588881;40;20075;-63
2021/05/05 10:12:46;;;;;;;1.55;1.40;;;;;;;7.82;63.53;98078.31;3588649;40;20052;-63
2021/05/05 10:15:15;;;;;;;3.83;1.75;;;;;;;8.11;63.91;98081.72;3589011;40;20048;-63
2021/05/05 10:17:48;;;;;;;2.75;1.38;;;;;;;8.41;62.26;98084.97;3588408;40;20040;-63
2021/05/05 10:20:18;;;;;;;2.85;1.70;;;;;;;8.71;61.79;98076.75;3588771;40;20298;-63
2021/05/05 10:22:44;;;;;;;3.63;1.77;;;;;;;8.95;61.36;98081.47;3589481;40;20048;-63
2021/05/05 10:25:14;;;;;;;2.20;1.73;;;;;;;9.13;59.93;98072.97;3588860;40;20044;-63
2021/05/05 10:27:42;;;;;;;3.80;1.92;;;;;;;9.46;58.54;98070.34;3588339;40;20044;-63
2021/05/05 10:30:12;;;;;;;1.50;1.40;;;;;;;9.62;58.01;98063.88;3588804;40;20382;-63
2021/05/05 10:32:40;;;;;;;3.92;1.42;;;;;;;9.59;56.55;98069.53;3588621;40;20063;-63
2021/05/05 10:35:14;;;;;;;2.20;1.40;;;;;;;9.76;56.98;98078.69;3588706;40;20059;-63
2021/05/05 10:37:43;;;;;;;4.47;1.88;;;;;;;9.77;55.03;98064.47;3588282;40;20044;-64
2021/05/05 10:40:16;;;;;;;4.07;1.65;;;;;;;9.90;55.02;98077.63;3587931;40;20068;-63
2021/05/05 10:42:50;;;;;;;3.85;1.40;;;;;;;10.05;53.04;98068.69;3588592;40;20505;-64
2021/05/05 10:45:32;;;;;;;3.97;1.80;;;;;;;10.22;51.95;98077.78;3589207;40;20052;-64
2021/05/05 10:48:07;;;;;;;2.13;1.20;;;;;;;10.22;49.78;98083.06;3588323;40;20040;-64
2021/05/05 10:50:58;;;;;;;3.58;1.30;;;;;;;10.22;51.37;98071.69;3588809;40;20390;-64
2021/05/05 10:53:27;;;;;;;2.80;1.50;;;;;;;10.54;50.71;98062.84;3588685;40;20052;-63
2021/05/05 10:55:56;;;;;;;4.07;1.30;;;;;;;10.55;49.37;98087.44;3590077;40;20384;-62
2021/05/05 10:58:26;;;;;;;4.57;2.22;;;;;;;10.70;48.90;98092.47;3589947;40;20049;-62
2021/05/05 11:01:03;;;;;;;2.40;1.30;;;;;;;10.69;48.01;98090.84;3590004;40;20067;-62
2021/05/05 11:04:00;;;;;;;2.50;1.10;;;;;;;10.24;48.18;98096.03;3590074;40;20044;-62
2021/05/05 11:06:50;;;;;;;1.98;1.13;;;;;;;9.94;48.93;98115.00;3590075;40;20059;-62
2021/05/05 11:09:43;;;;;;;9.50;1.65;;;;;;;9.83;51.83;98148.09;3590097;40;20056;-62
2021/05/05 11:12:49;;;;;;;2.65;1.50;;;;;;;9.92;53.33;98148.72;3590054;40;20134;-63
2021/05/05 11:15:16;;;;;;;3.10;1.38;;;;;;;9.97;52.61;98143.66;3589855;40;20056;-62
2021/05/05 11:17:44;;;;;;;2.80;1.13;;;;;;;9.78;52.07;98142.63;3589811;40;20321;-62
2021/05/05 11:20:31;;;;;;;1.50;0.98;;;;;;;9.98;52.16;98139.97;3589933;40;20028;-62
2021/05/05 11:22:58;;;;;;;1.10;1.00;;;;;;;9.97;51.52;98142.84;3591344;40;20088;-62
2021/05/05 11:25:27;;;;;;;2.05;1.15;;;;;;;10.07;50.06;98124.72;3591787;40;20126;-62
2021/05/05 11:27:59;;;;;;;0.90;0.70;;;;;;;10.20;49.05;98123.88;3591090;40;20067;-62
2021/05/05 11:30:31;;;;;;;1.15;0.70;;;;;;;10.31;47.98;98132.03;3589010;40;20040;-62
2021/05/05 11:32:58;;;;;;;3.28;0.98;;;;;;;10.35;47.85;98135.88;3589864;40;20061;-63
2021/05/05 11:35:26;;;;;;;1.52;1.02;;;;;;;10.44;48.52;98130.38;3589695;40;20323;-63
2021/05/05 11:38:08;;;;;;;1.65;1.13;;;;;;;10.61;46.61;98137.66;3589477;40;20048;-62
2021/05/05 11:40:35;;;;;;;1.15;1.02;;;;;;;10.71;46.05;98149.59;3589863;40;20035;-63
2021/05/05 11:43:18;;;;;;;5.00;0.80;;;;;;;10.65;45.50;98127.44;3589855;40;20033;-62
2021/05/05 11:45:55;;;;;;;1.58;1.23;;;;;;;10.98;45.73;98129.13;3590204;40;20044;-63
2021/05/05 11:48:28;;;;;;;2.10;1.05;;;;;;;11.15;45.09;98133.72;3591200;40;20029;-62
2021/05/05 11:50:55;;;;;;;2.63;1.25;;;;;;;11.31;44.94;98136.91;3593694;40;20044;-62
2021/05/05 11:53:36;;;;;;;1.67;1.25;;;;;;;11.62;43.97;98141.34;3594562;40;20420;-62
2021/05/05 11:56:15;;;;;;;3.28;1.27;;;;;;;11.66;44.11;98137.25;3594122;40;20048;-62
2021/05/05 11:58:42;;;;;;;1.75;1.10;;;;;;;11.79;44.34;98142.44;3595435;40;20029;-62